createdAt,value
2018-09-01T16:00:26.540Z,26.30
2018-09-01T16:02:54.736Z,25.70
2018-09-01T16:05:23.992Z,26.50
2018-09-01T16:07:52.196Z,27.40
2018-09-01T16:12:48.409Z,26.10
2018-09-01T16:22:41.073Z,25.30
2018-09-01T16:25:09.278Z,25.60
2018-09-01T16:27:37.501Z,26.00
2018-09-01T16:30:05.985Z,25.40
2018-09-01T16:35:02.121Z,25.00
2018-09-01T16:37:30.297Z,25.50
2018-09-01T16:39:58.471Z,26.40
2018-09-01T16:42:26.644Z,25.20
2018-09-01T16:44:54.813Z,24.20
2018-09-01T16:47:23.004Z,25.20
2018-09-01T16:49:51.181Z,24.60
2018-09-01T16:52:19.391Z,24.30
2018-09-01T16:54:47.568Z,23.50
2018-09-01T16:57:15.738Z,24.90
2018-09-01T17:02:11.856Z,23.80
2018-09-01T17:04:40.024Z,23.20
2018-09-01T17:12:04.225Z,23.80
2018-09-01T17:14:32.396Z,23.90
2018-09-01T17:17:00.565Z,23.10
2018-09-01T17:19:28.924Z,22.30
2018-09-01T17:21:57.089Z,23.30
2018-09-01T17:24:25.244Z,22.60
2018-09-01T17:29:21.410Z,22.10
2018-09-01T17:31:49.562Z,22.20
2018-09-01T17:34:17.719Z,22.10
2018-09-01T17:41:42.645Z,20.70
2018-09-01T17:44:10.740Z,20.50
2018-09-01T17:46:38.914Z,20.20
2018-09-01T17:49:07.117Z,20.00
2018-09-01T17:54:03.297Z,19.90
2018-09-01T17:58:59.402Z,19.50
2018-09-01T18:01:28.150Z,19.50
2018-09-01T18:03:56.338Z,19.40
2018-09-01T18:06:24.932Z,19.30
2018-09-01T18:11:21.135Z,19.10
2018-09-01T18:13:49.467Z,19.10
2018-09-01T18:18:45.737Z,18.80
2018-09-01T18:21:13.894Z,18.80
2018-09-01T18:23:42.072Z,18.70
2018-09-01T18:28:38.218Z,18.50
2018-09-01T18:33:34.467Z,18.20
2018-09-01T18:36:02.818Z,18.10
2018-09-01T18:38:31.006Z,17.90
2018-09-01T18:40:59.340Z,17.90
2018-09-01T18:45:55.556Z,17.70
2018-09-01T18:48:24.136Z,17.60
2018-09-01T18:58:16.200Z,17.00
2018-09-01T19:00:44.397Z,16.90
2018-09-01T19:03:12.604Z,16.90
2018-09-01T19:05:40.804Z,16.70
2018-09-01T19:08:08.988Z,16.60
2018-09-01T19:13:05.128Z,16.50
2018-09-01T19:18:01.320Z,16.20
2018-09-01T19:20:29.508Z,16.10
2018-09-01T19:22:57.703Z,16.10
2018-09-01T19:25:25.889Z,16.00
2018-09-01T19:27:54.069Z,16.00
2018-09-01T19:30:22.237Z,15.90
2018-09-01T19:32:50.425Z,15.80
2018-09-01T19:35:18.616Z,15.80
2018-09-01T19:37:46.781Z,15.70
2018-09-01T19:40:14.992Z,15.60
2018-09-01T19:42:43.196Z,15.50
2018-09-01T19:45:11.425Z,15.50
2018-09-01T19:47:39.537Z,15.50
2018-09-01T19:52:35.692Z,15.30
2018-09-01T19:55:03.948Z,15.20
2018-09-01T20:00:00.138Z,15.00
2018-09-01T20:02:28.337Z,15.00
2018-09-01T20:07:24.603Z,15.10
2018-09-01T20:09:52.810Z,15.10
2018-09-01T20:12:21.009Z,15.20
2018-09-01T20:14:49.213Z,15.10
2018-09-01T20:17:17.646Z,15.10
2018-09-01T20:19:45.818Z,15.00
2018-09-01T20:22:14.056Z,15.00
2018-09-01T20:41:57.865Z,14.90
2018-09-01T20:44:26.060Z,14.90
2018-09-01T20:56:45.996Z,14.50
2018-09-01T21:06:38.046Z,14.40
2018-09-01T21:11:35.026Z,14.40
2018-09-01T21:16:31.164Z,14.50
2018-09-01T21:18:59.333Z,14.40
2018-09-01T21:21:27.535Z,14.40
2018-09-01T21:23:55.785Z,14.30
2018-09-01T21:26:24.115Z,14.30
2018-09-01T21:28:52.292Z,14.20
2018-09-01T21:31:20.449Z,14.20
2018-09-01T21:33:48.640Z,14.10
2018-09-01T21:36:16.825Z,14.10
2018-09-01T21:38:45.041Z,14.00
2018-09-01T21:41:14.040Z,14.00
2018-09-01T21:43:42.377Z,13.90
2018-09-01T21:53:34.590Z,13.70
